Time;durP1;ratioP1;P1;durP2;ratioP2;P2;SDS_P1;SDS_P2;PMS_P1;PMS_P2;Temp;Humidity;BMP_temperature;BMP_pressure;BME280_temperature;BME280_humidity;BME280_pressure;Samples;Min_cycle;Max_cycle;Signal;HPM_P1;HPM_P2
2022/03/06 00:02:46;;;;;;;13.93;12.63;;;21.10;62.70;;;;;;6034972;28;93392;-68
2022/03/06 00:05:48;;;;;;;14.90;13.50;;;21.10;62.60;;;;;;6042082;28;94168;-68
2022/03/06 00:08:50;;;;;;;13.82;12.52;;;21.10;62.60;;;;;;6059364;28;94359;-68
2022/03/06 00:11:53;;;;;;;13.25;12.05;;;21.10;62.60;;;;;;6048412;28;95145;-68
2022/03/06 00:14:55;;;;;;;14.70;13.30;;;21.10;62.60;;;;;;6041503;28;94174;-68
2022/03/06 00:17:58;;;;;;;14.25;12.95;;;21.10;63.60;;;;;;6046942;28;93160;-68
2022/03/06 00:21:00;;;;;;;14.93;13.55;;;21.10;62.60;;;;;;6046826;28;93748;-68
2022/03/06 00:24:03;;;;;;;14.95;13.55;;;21.10;62.70;;;;;;6043083;28;93998;-68
2022/03/06 00:27:05;;;;;;;14.75;13.25;;;21.10;62.70;;;;;;6049017;28;94023;-68
2022/03/06 00:30:10;;;;;;;14.50;13.10;;;21.10;62.70;;;;;;6047313;28;94123;-67
2022/03/06 00:33:13;;;;;;;14.55;13.15;;;21.10;62.70;;;;;;6053431;28;93650;-68
2022/03/06 00:36:15;;;;;;;14.10;12.70;;;21.10;62.70;;;;;;6045292;28;93036;-68
2022/03/06 00:39:17;;;;;;;14.90;13.50;;;21.10;62.70;;;;;;6043770;28;93978;-68
2022/03/06 00:42:19;;;;;;;14.35;13.05;;;21.00;62.70;;;;;;6043523;28;95093;-68
2022/03/06 00:45:21;;;;;;;14.25;12.88;;;21.00;62.70;;;;;;6043925;28;94469;-68
2022/03/06 00:48:25;;;;;;;14.15;12.75;;;21.00;63.60;;;;;;6034757;28;94234;-68
2022/03/06 00:51:27;;;;;;;14.30;13.00;;;21.00;62.70;;;;;;6051342;28;92802;-68
2022/03/06 00:54:29;;;;;;;14.15;12.85;;;21.10;62.70;;;;;;6061641;28;94262;-67
2022/03/06 00:57:31;;;;;;;14.02;12.68;;;21.00;62.70;;;;;;6039828;28;94055;-67
2022/03/06 01:00:35;;;;;;;13.98;12.68;;;21.00;62.70;;;;;;6047570;28;93116;-67
2022/03/06 01:03:40;;;;;;;13.70;12.40;;;21.00;62.70;;;;;;6055062;28;93587;-67
2022/03/06 01:06:42;;;;;;;14.73;13.25;;;21.00;62.70;;;;;;6062123;28;94260;-68
2022/03/06 01:09:44;;;;;;;13.40;12.20;;;21.00;62.70;;;;;;6049863;28;94169;-67
2022/03/06 01:12:46;;;;;;;13.20;11.90;;;21.00;62.70;;;;;;6050503;28;95180;-68
2022/03/06 01:15:48;;;;;;;13.80;12.50;;;21.00;62.70;;;;;;6040884;28;94283;-68
2022/03/06 01:18:52;;;;;;;13.88;12.57;;;21.00;62.70;;;;;;6056931;28;94101;-68
2022/03/06 01:21:54;;;;;;;13.60;12.30;;;21.00;62.70;;;;;;6059679;28;94150;-67
2022/03/06 01:24:56;;;;;;;14.00;12.70;;;21.00;62.70;;;;;;6062126;28;94086;-68
2022/03/06 01:27:58;;;;;;;14.55;13.05;;;21.00;62.80;;;;;;6060139;28;94123;-67
2022/03/06 01:31:00;;;;;;;13.60;12.30;;;20.90;62.70;;;;;;6060280;28;94010;-68
2022/03/06 01:34:03;;;;;;;13.95;12.65;;;20.90;62.70;;;;;;6038178;28;93630;-67
2022/03/06 01:37:06;;;;;;;14.75;13.35;;;21.00;62.80;;;;;;6048759;28;94231;-67
2022/03/06 01:40:10;;;;;;;14.15;12.80;;;20.90;62.70;;;;;;6059253;28;94027;-68
2022/03/06 01:43:12;;;;;;;14.57;13.25;;;20.90;62.70;;;;;;6060587;28;94892;-68
2022/03/06 01:46:14;;;;;;;14.85;13.45;;;20.90;62.70;;;;;;6047203;28;94117;-67
2022/03/06 01:49:18;;;;;;;15.35;13.85;;;20.90;62.70;;;;;;6060337;28;94255;-68
2022/03/06 01:52:20;;;;;;;15.10;13.63;;;20.90;62.70;;;;;;6060619;28;93075;-68
2022/03/06 01:55:25;;;;;;;15.50;14.00;;;20.90;62.70;;;;;;6042835;28;94003;-68
2022/03/06 01:58:27;;;;;;;15.50;14.00;;;20.90;62.70;;;;;;6037443;28;94495;-68
2022/03/06 02:01:30;;;;;;;15.52;14.02;;;20.90;62.70;;;;;;6034884;28;94700;-67
2022/03/06 02:04:34;;;;;;;15.70;14.20;;;20.90;62.70;;;;;;6036888;28;92234;-68
2022/03/06 02:07:36;;;;;;;16.42;14.82;;;20.90;62.70;;;;;;6059203;28;94159;-68
2022/03/06 02:10:38;;;;;;;15.73;14.23;;;20.90;62.70;;;;;;6040447;28;94278;-68
2022/03/06 02:13:40;;;;;;;16.33;14.82;;;20.90;62.80;;;;;;6049549;28;94928;-68
2022/03/06 02:16:42;;;;;;;16.77;15.15;;;20.90;62.90;;;;;;6045354;28;94170;-68
2022/03/06 02:19:58;;;;;;;16.45;14.85;;;20.80;62.80;;;;;;6068273;28;92644;-68
2022/03/06 02:23:01;;;;;;;17.60;15.90;;;20.90;62.90;;;;;;6059710;28;92932;-67
2022/03/06 02:26:04;;;;;;;16.17;14.57;;;20.80;62.90;;;;;;6050412;28;92777;-68
2022/03/06 02:29:06;;;;;;;16.08;14.48;;;20.80;62.90;;;;;;6064502;28;94297;-67
2022/03/06 02:32:10;;;;;;;16.02;14.43;;;20.80;62.90;;;;;;6041839;28;94206;-68
2022/03/06 02:35:13;;;;;;;16.55;14.95;;;20.80;62.90;;;;;;6055443;28;93330;-67
2022/03/06 02:38:17;;;;;;;16.73;15.13;;;20.80;62.80;;;;;;6035743;28;94133;-68
2022/03/06 02:41:19;;;;;;;16.10;14.60;;;20.80;62.90;;;;;;6036278;28;94151;-68
2022/03/06 02:44:21;;;;;;;16.92;15.27;;;20.80;62.90;;;;;;6057826;28;95123;-67
2022/03/06 02:47:23;;;;;;;17.02;15.43;;;20.80;62.90;;;;;;6059759;28;94107;-68
2022/03/06 02:50:27;;;;;;;16.50;14.90;;;20.80;62.80;;;;;;6050317;28;94040;-67
2022/03/06 02:53:31;;;;;;;16.83;15.23;;;20.80;62.80;;;;;;6064028;28;92827;-67
2022/03/06 02:56:51;;;;;;;16.83;15.20;;;20.80;62.80;;;;;;6060124;28;94076;-67
2022/03/06 02:59:53;;;;;;;15.93;14.32;;;20.80;62.90;;;;;;6054382;28;94026;-68
2022/03/06 03:02:56;;;;;;;16.25;14.65;;;20.80;62.90;;;;;;6054299;28;94108;-67
2022/03/06 03:05:58;;;;;;;16.85;15.25;;;20.80;62.90;;;;;;6069837;28;93432;-68
2022/03/06 03:09:04;;;;;;;17.02;15.30;;;20.70;62.80;;;;;;6043372;28;94119;-68
2022/03/06 03:12:08;;;;;;;16.50;14.90;;;20.70;62.90;;;;;;6073582;28;94526;-68
2022/03/06 03:15:11;;;;;;;16.35;14.75;;;20.70;62.90;;;;;;6047497;28;95177;-68
2022/03/06 03:18:13;;;;;;;16.40;14.80;;;20.80;62.90;;;;;;6058647;28;93875;-68
2022/03/06 03:21:15;;;;;;;16.58;14.98;;;20.70;62.90;;;;;;6067112;28;94147;-68
2022/03/06 03:24:19;;;;;;;16.33;14.73;;;20.70;62.90;;;;;;6065902;28;94145;-68
2022/03/06 03:27:21;;;;;;;16.33;14.73;;;20.70;62.90;;;;;;6065823;28;94129;-68
2022/03/06 03:30:23;;;;;;;16.40;14.80;;;20.70;62.90;;;;;;6060292;28;94115;-68
2022/03/06 03:33:25;;;;;;;15.68;14.18;;;20.80;62.90;;;;;;6052236;28;93328;-68
2022/03/06 03:36:27;;;;;;;15.68;14.18;;;20.70;62.80;;;;;;6047301;28;93402;-68
2022/03/06 03:39:31;;;;;;;15.38;13.88;;;20.70;62.80;;;;;;6066541;28;94179;-68
2022/03/06 03:42:33;;;;;;;15.10;13.68;;;20.80;62.90;;;;;;6044790;28;93970;-68
2022/03/06 03:45:35;;;;;;;15.35;13.85;;;20.70;62.80;;;;;;6047941;28;95222;-68
2022/03/06 03:48:37;;;;;;;15.43;13.93;;;20.70;62.80;;;;;;6035258;28;94304;-68
2022/03/06 03:51:39;;;;;;;15.05;13.52;;;20.70;62.70;;;;;;6042461;28;94183;-68
2022/03/06 03:54:43;;;;;;;15.48;13.98;;;20.70;62.70;;;;;;6050374;28;94089;-68
2022/03/06 03:57:45;;;;;;;15.18;13.68;;;20.70;62.70;;;;;;6058075;28;94145;-68
2022/03/06 04:00:48;;;;;;;15.20;13.70;;;20.70;62.80;;;;;;6045835;28;94188;-68
2022/03/06 04:03:51;;;;;;;14.70;13.30;;;20.70;62.70;;;;;;6046152;28;93054;-68
2022/03/06 04:06:53;;;;;;;13.93;12.63;;;20.70;62.80;;;;;;6046108;28;93427;-68
2022/03/06 04:09:56;;;;;;;14.50;13.13;;;20.70;62.80;;;;;;6046935;28;95108;-68
2022/03/06 04:12:58;;;;;;;15.35;13.90;;;20.70;62.90;;;;;;6048986;28;94171;-66
2022/03/06 04:16:01;;;;;;;14.25;12.85;;;20.70;62.80;;;;;;6043647;28;94914;-68
2022/03/06 04:19:04;;;;;;;14.20;12.80;;;20.70;62.90;;;;;;6050311;28;93971;-68
2022/03/06 04:22:06;;;;;;;13.60;12.30;;;20.60;62.70;;;;;;6044496;28;93941;-68
2022/03/06 04:25:09;;;;;;;13.18;11.95;;;20.70;63.70;;;;;;6041037;28;94414;-67
2022/03/06 04:28:12;;;;;;;13.70;12.40;;;20.70;62.70;;;;;;6058780;28;94095;-67
2022/03/06 04:31:14;;;;;;;13.70;12.40;;;20.70;62.70;;;;;;6060781;28;94524;-68
2022/03/06 04:34:16;;;;;;;13.30;12.00;;;20.70;62.70;;;;;;6062837;28;92976;-67
2022/03/06 04:37:18;;;;;;;12.73;11.52;;;20.70;62.70;;;;;;6060823;28;93686;-67
2022/03/06 04:40:21;;;;;;;13.65;12.35;;;20.70;62.60;;;;;;6041452;28;94159;-68
2022/03/06 04:43:24;;;;;;;12.93;11.68;;;20.70;62.60;;;;;;6050063;28;94091;-67
2022/03/06 04:46:28;;;;;;;13.20;11.90;;;20.70;62.70;;;;;;6038140;28;94049;-67
2022/03/06 04:49:30;;;;;;;12.40;11.20;;;20.70;62.60;;;;;;6050036;28;93090;-67
2022/03/06 04:52:33;;;;;;;13.50;11.98;;;20.70;62.50;;;;;;6040980;28;94185;-68
2022/03/06 04:55:36;;;;;;;13.55;12.15;;;20.70;62.40;;;;;;6058344;28;94436;-68
2022/03/06 04:58:38;;;;;;;12.88;11.68;;;20.70;62.40;;;;;;6038247;28;92657;-68
2022/03/06 05:01:40;;;;;;;11.90;10.70;;;20.60;62.30;;;;;;6048988;28;94218;-67
2022/03/06 05:04:42;;;;;;;12.55;11.27;;;20.70;62.40;;;;;;6048393;28;94055;-68
2022/03/06 05:07:44;;;;;;;12.43;11.23;;;20.70;62.30;;;;;;6051127;28;93449;-68
2022/03/06 05:10:48;;;;;;;12.30;11.10;;;20.70;62.20;;;;;;6061482;28;94144;-68
2022/03/06 05:13:50;;;;;;;11.40;10.30;;;20.70;62.20;;;;;;6038653;28;94304;-68
2022/03/06 05:16:52;;;;;;;11.65;10.55;;;20.70;62.20;;;;;;6055046;28;94106;-67
2022/03/06 05:19:54;;;;;;;11.35;10.25;;;20.70;62.10;;;;;;6062123;28;94045;-68
2022/03/06 05:22:56;;;;;;;11.80;10.68;;;20.80;62.20;;;;;;6046361;28;94152;-67
2022/03/06 05:29:19;;;;;;;11.27;10.23;;;20.70;62.10;;;;;;6060184;28;92329;-68
2022/03/06 05:32:22;;;;;;;10.90;9.80;;;20.80;62.10;;;;;;6042045;28;94015;-68
2022/03/06 05:35:24;;;;;;;10.70;9.70;;;20.80;62.10;;;;;;6035697;28;94065;-68
2022/03/06 05:38:26;;;;;;;11.20;10.10;;;20.80;62.00;;;;;;6051026;28;93616;-68
2022/03/06 05:41:30;;;;;;;10.27;9.27;;;20.80;62.00;;;;;;6053323;28;93298;-68
2022/03/06 05:44:32;;;;;;;10.80;9.80;;;20.90;61.90;;;;;;6062661;28;94095;-67
2022/03/06 05:47:34;;;;;;;11.10;10.02;;;20.80;61.90;;;;;;6046143;28;95120;-67
2022/03/06 05:50:36;;;;;;;10.25;9.25;;;20.80;61.90;;;;;;6047504;28;94174;-68
2022/03/06 05:53:38;;;;;;;10.18;9.18;;;20.80;61.90;;;;;;6050857;28;94527;-68
2022/03/06 05:56:42;;;;;;;10.52;9.52;;;20.80;61.90;;;;;;6061234;28;94112;-67
2022/03/06 06:00:08;;;;;;;9.75;8.85;;;20.90;61.90;;;;;;6055895;28;94172;-68
2022/03/06 06:03:10;;;;;;;9.20;8.35;;;20.80;61.80;;;;;;6036430;28;92856;-67
2022/03/06 06:06:12;;;;;;;9.48;8.57;;;20.90;61.90;;;;;;6061171;28;94487;-67
2022/03/06 06:09:15;;;;;;;9.63;8.73;;;20.80;61.70;;;;;;6048838;28;93333;-68
2022/03/06 06:12:18;;;;;;;9.52;8.63;;;20.90;61.80;;;;;;6060447;28;94093;-67
2022/03/06 06:15:21;;;;;;;9.57;8.57;;;20.90;61.70;;;;;;6044351;28;94343;-67
2022/03/06 06:18:23;;;;;;;9.57;8.68;;;20.90;61.70;;;;;;6052375;28;95427;-67
2022/03/06 06:21:25;;;;;;;9.20;8.38;;;20.90;61.70;;;;;;6060700;28;94104;-68
2022/03/06 06:24:27;;;;;;;8.95;8.15;;;20.90;61.70;;;;;;6045527;28;94204;-67
2022/03/06 06:27:30;;;;;;;8.85;8.05;;;20.90;61.60;;;;;;6061430;28;94106;-68
2022/03/06 06:30:33;;;;;;;8.35;7.65;;;20.90;61.60;;;;;;6037019;28;94528;-67
2022/03/06 06:33:35;;;;;;;8.63;7.82;;;21.00;62.60;;;;;;6040587;28;94116;-68
2022/03/06 06:36:37;;;;;;;8.40;7.70;;;21.00;61.60;;;;;;6059948;28;94293;-67
2022/03/06 06:39:39;;;;;;;8.98;8.18;;;20.90;61.60;;;;;;6057084;28;93436;-67
2022/03/06 06:42:43;;;;;;;8.70;7.90;;;20.90;61.60;;;;;;6035427;28;93096;-68
2022/03/06 06:45:45;;;;;;;8.25;7.55;;;20.90;61.60;;;;;;6049810;28;93919;-68
2022/03/06 06:48:47;;;;;;;8.65;7.85;;;21.00;61.60;;;;;;6060026;28;95022;-68
2022/03/06 06:51:50;;;;;;;8.55;7.75;;;21.00;61.70;;;;;;6047670;28;94085;-68
2022/03/06 06:54:52;;;;;;;8.20;7.40;;;21.00;61.70;;;;;;6045896;28;94144;-67
2022/03/06 06:57:55;;;;;;;8.15;7.35;;;21.00;61.60;;;;;;6047768;28;94229;-68
2022/03/06 07:00:58;;;;;;;7.95;7.22;;;21.00;61.60;;;;;;6052644;28;93766;-68
2022/03/06 07:04:01;;;;;;;8.30;7.50;;;21.00;61.60;;;;;;6051702;28;93248;-68
2022/03/06 07:07:03;;;;;;;7.80;7.10;;;21.00;61.60;;;;;;6060856;28;94154;-68
2022/03/06 07:10:06;;;;;;;7.63;6.93;;;21.00;61.50;;;;;;6056575;28;92061;-68
2022/03/06 07:13:10;;;;;;;8.23;7.50;;;21.00;61.60;;;;;;6062242;28;94181;-67
2022/03/06 07:16:12;;;;;;;7.53;6.82;;;21.10;61.50;;;;;;6059453;28;94303;-67
2022/03/06 07:19:14;;;;;;;7.93;7.22;;;21.00;61.40;;;;;;6049487;28;95649;-68
2022/03/06 07:22:16;;;;;;;7.90;7.20;;;21.10;61.50;;;;;;6034593;28;93345;-68
2022/03/06 07:25:18;;;;;;;7.45;6.75;;;21.10;61.50;;;;;;6060193;28;94705;-68
2022/03/06 07:28:22;;;;;;;7.68;6.97;;;21.10;61.50;;;;;;6065415;28;93928;-67
2022/03/06 07:31:24;;;;;;;7.43;6.72;;;21.10;61.40;;;;;;6049877;28;94143;-68
2022/03/06 07:34:29;;;;;;;7.10;6.50;;;21.10;61.40;;;;;;6046569;28;94068;-68
2022/03/06 07:37:31;;;;;;;8.23;7.43;;;21.10;61.40;;;;;;6036351;29;94020;-67
2022/03/06 07:40:33;;;;;;;7.45;6.75;;;21.10;61.40;;;;;;6047275;28;93453;-68
2022/03/06 07:43:37;;;;;;;6.93;6.32;;;21.10;61.40;;;;;;6035424;28;94129;-67
2022/03/06 07:46:39;;;;;;;7.10;6.40;;;21.10;62.30;;;;;;6042545;28;94131;-67
2022/03/06 07:49:41;;;;;;;6.97;6.38;;;21.10;61.40;;;;;;6058386;28;95077;-68
2022/03/06 07:52:43;;;;;;;7.40;6.70;;;21.10;61.40;;;;;;6042994;28;94191;-68
2022/03/06 07:55:45;;;;;;;7.30;6.60;;;21.10;61.40;;;;;;6046882;28;94209;-67
2022/03/06 07:58:49;;;;;;;7.03;6.35;;;21.10;61.40;;;;;;6034881;28;93088;-68
2022/03/06 08:01:51;;;;;;;6.78;6.18;;;21.10;61.40;;;;;;6047774;28;93925;-68
2022/03/06 08:04:53;;;;;;;6.95;6.25;;;21.10;61.40;;;;;;6046668;28;94062;-68
2022/03/06 08:07:55;;;;;;;6.82;6.22;;;21.20;61.40;;;;;;6058435;28;92998;-68
2022/03/06 08:10:58;;;;;;;6.97;6.38;;;21.10;61.40;;;;;;6048978;28;91844;-68
2022/03/06 08:14:01;;;;;;;6.78;6.18;;;21.20;61.40;;;;;;6052122;28;94083;-68
2022/03/06 08:17:03;;;;;;;7.13;6.53;;;21.20;61.20;;;;;;6054534;28;93924;-67
2022/03/06 08:20:07;;;;;;;7.35;6.65;;;21.20;61.20;;;;;;6046472;28;95339;-69
2022/03/06 08:23:09;;;;;;;7.43;6.72;;;21.20;61.30;;;;;;6045348;28;93953;-68
2022/03/06 08:26:12;;;;;;;6.68;6.05;;;21.20;61.20;;;;;;6067077;28;94056;-68
2022/03/06 08:29:15;;;;;;;6.18;5.68;;;21.30;61.20;;;;;;6046341;28;94094;-67
2022/03/06 08:32:17;;;;;;;6.70;6.10;;;21.20;61.20;;;;;;6050781;28;94191;-68
2022/03/06 08:35:19;;;;;;;6.70;6.10;;;21.30;61.40;;;;;;6045205;28;94079;-68
2022/03/06 08:38:21;;;;;;;6.43;5.85;;;21.30;61.40;;;;;;6036332;28;94168;-68
2022/03/06 08:41:24;;;;;;;7.05;6.38;;;21.20;61.40;;;;;;6047772;28;93339;-68
2022/03/06 08:44:27;;;;;;;6.85;6.25;;;21.20;61.30;;;;;;6046555;28;94107;-68
2022/03/06 08:47:29;;;;;;;6.32;5.72;;;21.20;61.30;;;;;;6049423;28;94160;-68
2022/03/06 08:50:31;;;;;;;6.25;5.70;;;21.20;61.30;;;;;;6057129;28;94995;-68
2022/03/06 08:53:34;;;;;;;6.38;5.78;;;21.30;61.50;;;;;;6045249;28;94172;-68
2022/03/06 08:56:36;;;;;;;6.47;5.88;;;21.30;61.60;;;;;;6044804;28;93857;-68
2022/03/06 08:59:39;;;;;;;6.25;5.75;;;21.20;61.60;;;;;;6042561;28;94422;-68
2022/03/06 09:02:42;;;;;;;5.68;5.18;;;21.30;61.70;;;;;;6041063;28;94558;-68
2022/03/06 09:05:44;;;;;;;6.35;5.75;;;21.30;61.60;;;;;;6044641;28;94041;-68
2022/03/06 09:08:46;;;;;;;6.22;5.63;;;21.30;61.70;;;;;;6045612;28;94207;-67
2022/03/06 09:11:48;;;;;;;5.95;5.35;;;21.30;61.70;;;;;;6060318;28;93487;-68
2022/03/06 09:14:51;;;;;;;6.25;5.65;;;21.30;61.70;;;;;;6046120;28;94178;-68
2022/03/06 09:17:54;;;;;;;5.80;5.30;;;21.30;61.60;;;;;;6043539;28;94180;-67
2022/03/06 09:20:56;;;;;;;5.97;5.47;;;21.30;61.70;;;;;;6049291;28;93571;-68
2022/03/06 09:23:58;;;;;;;6.00;5.45;;;21.30;61.70;;;;;;6062097;28;94479;-68
2022/03/06 09:27:01;;;;;;;5.68;5.18;;;21.40;61.80;;;;;;6066382;28;92813;-68
2022/03/06 09:30:05;;;;;;;5.38;4.88;;;21.30;61.70;;;;;;6046836;28;92566;-67
2022/03/06 09:33:07;;;;;;;5.88;5.35;;;21.30;61.80;;;;;;6051356;28;97521;-67
2022/03/06 09:36:09;;;;;;;6.05;5.45;;;21.30;61.80;;;;;;6048883;28;94190;-68
2022/03/06 09:39:13;;;;;;;6.20;5.60;;;21.40;62.00;;;;;;6050048;28;94105;-68
2022/03/06 09:42:17;;;;;;;5.40;4.90;;;21.40;61.90;;;;;;6046988;28;93321;-68
2022/03/06 09:45:23;;;;;;;5.60;5.10;;;21.30;61.90;;;;;;6060432;28;93973;-67
2022/03/06 09:48:25;;;;;;;5.57;5.07;;;21.30;61.90;;;;;;6048655;28;94412;-67
2022/03/06 09:51:27;;;;;;;5.95;5.45;;;21.40;62.00;;;;;;6049118;28;95121;-68
2022/03/06 09:54:48;;;;;;;5.85;5.35;;;21.30;61.90;;;;;;6053886;28;94105;-68
2022/03/06 09:57:54;;;;;;;5.50;5.00;;;21.30;61.90;;;;;;6057501;28;93787;-68
2022/03/06 10:00:58;;;;;;;5.30;4.80;;;21.40;62.00;;;;;;6042652;28;92993;-67
2022/03/06 10:04:21;;;;;;;5.35;4.85;;;21.40;62.00;;;;;;6041349;28;94118;-68
2022/03/06 10:07:23;;;;;;;5.68;5.18;;;21.40;61.90;;;;;;6048338;28;94517;-68
2022/03/06 10:10:36;;;;;;;5.57;5.07;;;21.40;61.90;;;;;;6054005;28;94212;-68
2022/03/06 10:13:39;;;;;;;5.40;4.90;;;21.40;61.80;;;;;;6053687;28;93572;-68
2022/03/06 10:16:43;;;;;;;5.45;4.95;;;21.40;62.00;;;;;;6056266;28;93029;-67
2022/03/06 10:20:04;;;;;;;5.60;5.10;;;21.40;62.10;;;;;;6044451;28;94031;-67
2022/03/06 10:23:24;;;;;;;5.38;4.88;;;21.40;62.00;;;;;;6042791;28;94304;-67
2022/03/06 10:26:28;;;;;;;5.20;4.80;;;21.40;62.00;;;;;;6064249;28;94205;-67
2022/03/06 10:29:31;;;;;;;5.15;4.65;;;21.40;62.00;;;;;;6048372;28;94040;-67
2022/03/06 10:32:44;;;;;;;5.20;4.72;;;21.40;62.20;;;;;;6046618;28;94439;-68
2022/03/06 10:35:48;;;;;;;5.35;4.85;;;21.40;62.30;;;;;;6060467;28;94370;-68
2022/03/06 10:38:55;;;;;;;5.45;4.95;;;21.40;62.20;;;;;;6046948;28;94231;-68
2022/03/06 10:41:57;;;;;;;5.60;5.10;;;21.40;62.20;;;;;;6061490;28;94255;-68
2022/03/06 10:44:59;;;;;;;5.78;5.28;;;21.50;62.20;;;;;;6059981;28;93357;-68
2022/03/06 10:48:09;;;;;;;6.35;5.78;;;21.40;62.20;;;;;;6041331;28;94377;-68
2022/03/06 10:51:13;;;;;;;6.95;6.25;;;21.40;62.30;;;;;;6050143;28;94382;-68
2022/03/06 10:54:16;;;;;;;7.80;7.10;;;21.40;62.20;;;;;;6050653;28;95163;-68
2022/03/06 10:57:19;;;;;;;8.05;7.25;;;21.50;62.30;;;;;;6056801;28;94375;-68
2022/03/06 11:00:21;;;;;;;8.85;8.05;;;21.50;62.30;;;;;;6044330;28;94414;-68
2022/03/06 11:03:26;;;;;;;9.48;8.57;;;21.50;62.30;;;;;;6059549;28;93130;-68
2022/03/06 11:06:29;;;;;;;8.90;8.10;;;21.50;62.30;;;;;;6058295;28;93013;-68
2022/03/06 11:09:32;;;;;;;10.35;9.35;;;21.50;62.20;;;;;;6049229;28;93024;-68
2022/03/06 11:12:36;;;;;;;9.90;9.00;;;21.50;62.20;;;;;;6054070;28;94369;-68
2022/03/06 11:15:38;;;;;;;10.27;9.27;;;21.50;62.20;;;;;;6045798;28;93575;-67
2022/03/06 11:18:42;;;;;;;10.27;9.38;;;21.50;62.20;;;;;;6052975;28;94147;-67
2022/03/06 11:21:46;;;;;;;11.20;10.13;;;21.50;62.30;;;;;;6058507;28;93775;-68
2022/03/06 11:24:52;;;;;;;11.48;10.38;;;21.50;62.30;;;;;;6052793;28;95229;-68
2022/03/06 11:28:10;;;;;;;11.38;10.38;;;21.50;62.40;;;;;;6067273;28;94171;-68
2022/03/06 11:31:12;;;;;;;11.48;10.38;;;21.50;62.40;;;;;;6035980;28;92861;-69
2022/03/06 11:34:24;;;;;;;11.43;10.40;;;21.50;62.40;;;;;;6046188;28;92807;-67
2022/03/06 11:37:28;;;;;;;11.93;10.82;;;21.50;62.50;;;;;;6033983;28;94173;-68
2022/03/06 11:40:49;;;;;;;11.60;10.52;;;21.50;62.50;;;;;;6035709;28;94126;-68
2022/03/06 11:43:53;;;;;;;12.13;10.93;;;21.50;62.50;;;;;;6048260;28;94233;-68
2022/03/06 11:47:14;;;;;;;12.00;10.90;;;21.50;62.30;;;;;;6055537;28;93384;-67
2022/03/06 11:50:23;;;;;;;11.93;10.73;;;21.50;62.30;;;;;;6033685;28;94182;-68
2022/03/06 11:53:46;;;;;;;11.95;10.85;;;21.50;62.30;;;;;;6045915;28;94385;-67
2022/03/06 11:56:59;;;;;;;11.93;10.82;;;21.50;62.20;;;;;;6044247;28;96067;-68
2022/03/06 12:00:15;;;;;;;11.88;10.77;;;21.60;62.20;;;;;;6034654;28;93106;-68
2022/03/06 12:03:17;;;;;;;11.30;10.30;;;21.60;62.20;;;;;;6046245;28;94195;-68
2022/03/06 12:06:20;;;;;;;11.18;10.18;;;21.60;62.10;;;;;;6058528;28;94175;-68
2022/03/06 12:09:24;;;;;;;11.70;10.60;;;21.60;62.00;;;;;;6046903;28;94206;-68
2022/03/06 12:12:27;;;;;;;11.55;10.55;;;21.60;62.00;;;;;;6062175;28;94674;-68
2022/03/06 12:15:30;;;;;;;11.70;10.60;;;21.60;62.10;;;;;;6039083;28;94100;-68
2022/03/06 12:18:32;;;;;;;11.70;10.60;;;21.60;62.20;;;;;;6044107;28;93456;-68
2022/03/06 12:21:39;;;;;;;11.82;10.73;;;21.60;62.10;;;;;;6042392;28;94085;-68
2022/03/06 12:24:42;;;;;;;11.60;10.50;;;21.60;62.00;;;;;;6039812;28;92979;-68
2022/03/06 12:28:18;;;;;;;11.27;10.27;;;21.60;62.00;;;;;;6045951;28;95181;-68
2022/03/06 12:31:32;;;;;;;10.90;9.90;;;21.60;62.10;;;;;;6046803;28;94061;-68
2022/03/06 12:34:41;;;;;;;11.00;10.00;;;21.60;62.10;;;;;;6034842;28;92311;-67
2022/03/06 12:37:52;;;;;;;10.45;9.52;;;21.60;62.10;;;;;;6045554;28;92711;-68
2022/03/06 12:40:54;;;;;;;10.90;9.90;;;21.50;62.00;;;;;;6056710;28;93988;-69
2022/03/06 12:44:02;;;;;;;11.60;10.50;;;21.60;62.20;;;;;;6056806;28;93964;-68
2022/03/06 12:47:05;;;;;;;11.15;10.07;;;21.50;62.00;;;;;;6037771;28;94259;-68
2022/03/06 12:50:12;;;;;;;11.02;10.02;;;21.60;62.00;;;;;;6060328;28;93367;-68
2022/03/06 12:53:18;;;;;;;10.70;9.70;;;21.60;62.00;;;;;;6052051;28;94155;-68
2022/03/06 12:56:29;;;;;;;9.60;8.80;;;21.60;62.10;;;;;;6058252;28;93913;-68
2022/03/06 12:59:35;;;;;;;11.07;9.98;;;21.60;62.00;;;;;;6047824;28;95084;-68
2022/03/06 13:02:37;;;;;;;9.65;8.75;;;21.60;62.10;;;;;;6042154;28;94109;-68
2022/03/06 13:05:40;;;;;;;10.07;9.15;;;21.60;62.10;;;;;;6044105;28;93030;-68
2022/03/06 13:08:45;;;;;;;10.18;9.27;;;21.60;62.20;;;;;;6062865;28;94159;-68
2022/03/06 13:11:49;;;;;;;10.05;9.15;;;21.60;62.20;;;;;;6062847;28;94497;-68
2022/03/06 13:14:51;;;;;;;9.63;8.73;;;21.60;62.30;;;;;;6063212;28;93077;-67
2022/03/06 13:17:57;;;;;;;9.68;8.77;;;21.60;62.20;;;;;;6064407;28;94136;-68
2022/03/06 13:20:59;;;;;;;9.77;8.88;;;21.60;62.30;;;;;;6050770;28;93363;-68
2022/03/06 13:24:05;;;;;;;9.40;8.55;;;21.60;62.30;;;;;;6048909;28;94161;-68
2022/03/06 13:27:08;;;;;;;9.55;8.75;;;21.60;62.30;;;;;;6070794;28;94078;-68
2022/03/06 13:30:13;;;;;;;9.63;8.82;;;21.60;62.30;;;;;;6056727;28;95026;-68
2022/03/06 13:33:20;;;;;;;9.00;8.20;;;21.60;62.30;;;;;;6038083;28;94588;-68
2022/03/06 13:36:22;;;;;;;9.48;8.68;;;21.60;62.40;;;;;;6049733;28;94108;-68
2022/03/06 13:39:27;;;;;;;8.57;7.78;;;21.60;62.30;;;;;;6049375;28;94194;-68
2022/03/06 13:42:33;;;;;;;8.88;8.07;;;21.60;62.30;;;;;;6037771;28;94089;-68
2022/03/06 13:45:36;;;;;;;9.02;8.23;;;21.60;62.20;;;;;;6050129;28;94181;-68
2022/03/06 13:48:38;;;;;;;8.88;8.07;;;21.60;62.20;;;;;;6047958;28;94249;-68
2022/03/06 13:51:41;;;;;;;8.25;7.55;;;21.60;62.20;;;;;;6051775;28;93144;-68
2022/03/06 13:54:44;;;;;;;8.73;7.95;;;21.60;62.00;;;;;;6036168;28;94283;-68
2022/03/06 13:58:00;;;;;;;8.77;7.95;;;21.60;62.10;;;;;;6042748;28;94253;-68
2022/03/06 14:01:03;;;;;;;8.52;7.72;;;21.60;62.10;;;;;;6044348;28;95128;-68
2022/03/06 14:04:06;;;;;;;8.30;7.57;;;21.60;62.10;;;;;;6036490;28;94348;-68
2022/03/06 14:07:10;;;;;;;8.07;7.38;;;21.60;62.20;;;;;;6054562;28;94174;-68
2022/03/06 14:10:13;;;;;;;8.65;7.80;;;21.60;62.20;;;;;;6046434;28;94390;-68
2022/03/06 14:13:24;;;;;;;8.13;7.38;;;21.60;62.20;;;;;;6064387;28;93841;-68
2022/03/06 14:16:30;;;;;;;7.75;7.05;;;21.60;62.20;;;;;;6051818;28;92931;-68
2022/03/06 14:19:32;;;;;;;8.05;7.30;;;21.60;62.30;;;;;;6061126;28;94394;-69
2022/03/06 14:22:34;;;;;;;7.70;7.00;;;21.60;62.30;;;;;;6047947;28;93406;-68
2022/03/06 14:25:38;;;;;;;7.50;6.85;;;21.60;62.40;;;;;;6052060;28;93012;-68
2022/03/06 14:28:50;;;;;;;7.20;6.57;;;21.60;62.40;;;;;;6062753;28;94523;-68
2022/03/06 14:31:53;;;;;;;7.15;6.55;;;21.60;62.40;;;;;;6049106;28;94688;-69
2022/03/06 14:34:57;;;;;;;7.78;6.75;;;21.60;62.40;;;;;;6054102;28;94173;-68
2022/03/06 14:37:59;;;;;;;6.82;6.22;;;21.60;62.40;;;;;;6056456;28;94190;-68
2022/03/06 14:41:03;;;;;;;7.03;6.43;;;21.60;62.50;;;;;;6049862;28;94089;-68
2022/03/06 14:44:06;;;;;;;7.38;6.68;;;21.50;62.50;;;;;;6047071;28;92644;-68
2022/03/06 14:47:08;;;;;;;7.03;6.43;;;21.60;62.60;;;;;;6037417;28;93232;-68
2022/03/06 14:50:10;;;;;;;6.80;6.20;;;21.60;62.60;;;;;;6047003;28;93996;-68
2022/03/06 14:53:12;;;;;;;7.35;6.65;;;21.60;62.60;;;;;;6044993;28;92943;-69
2022/03/06 14:56:16;;;;;;;7.13;6.53;;;21.60;62.60;;;;;;6041281;28;94443;-69
2022/03/06 14:59:18;;;;;;;7.05;6.45;;;21.60;62.50;;;;;;6035997;28;94676;-68
2022/03/06 15:02:20;;;;;;;6.65;6.05;;;21.60;62.50;;;;;;6040301;28;94925;-68
2022/03/06 15:05:22;;;;;;;6.22;5.72;;;21.60;62.60;;;;;;6048657;28;92844;-69
2022/03/06 15:08:25;;;;;;;6.40;5.90;;;21.60;62.50;;;;;;6048922;28;94107;-68
2022/03/06 15:11:28;;;;;;;6.60;6.00;;;21.60;62.50;;;;;;6055496;28;94195;-68
2022/03/06 15:14:30;;;;;;;6.38;5.80;;;21.60;62.50;;;;;;6036887;28;92974;-68
2022/03/06 15:17:32;;;;;;;6.30;5.78;;;21.60;62.50;;;;;;6047289;28;94523;-68
2022/03/06 15:20:34;;;;;;;5.90;5.40;;;21.60;62.50;;;;;;6059936;28;94132;-68
2022/03/06 15:23:36;;;;;;;6.30;5.75;;;21.60;62.60;;;;;;6060750;28;92179;-68
2022/03/06 15:26:40;;;;;;;5.90;5.40;;;21.60;62.60;;;;;;6068904;28;94082;-68
2022/03/06 15:29:42;;;;;;;5.80;5.30;;;21.60;62.70;;;;;;6049866;28;94282;-68
2022/03/06 15:32:44;;;;;;;5.97;5.45;;;21.60;62.60;;;;;;6059675;28;93612;-68
2022/03/06 15:35:46;;;;;;;6.00;5.50;;;21.60;62.60;;;;;;6047731;28;94061;-69
2022/03/06 15:38:48;;;;;;;6.10;5.53;;;21.60;62.60;;;;;;6048403;28;94531;-69
2022/03/06 15:41:53;;;;;;;5.72;5.22;;;21.60;62.60;;;;;;6033821;28;93995;-69
2022/03/06 15:44:55;;;;;;;5.85;5.30;;;21.60;62.50;;;;;;6047562;28;94094;-68
2022/03/06 15:47:57;;;;;;;5.60;5.10;;;21.60;62.60;;;;;;6052109;28;92172;-69
2022/03/06 15:50:59;;;;;;;5.60;5.10;;;21.60;62.60;;;;;;6059138;28;94202;-68